Time;durP1;ratioP1;P1;durP2;ratioP2;P2;SDS_P1;SDS_P2;PMS_P1;PMS_P2;Temp;Humidity;BMP_temperature;BMP_pressure;BME280_temperature;BME280_humidity;BME280_pressure;Samples;Min_cycle;Max_cycle;Signal;HPM_P1;HPM_P2
2024/02/23 00:32:20;;;;;;;16.48;8.48;;;;;;;;;;670171;23;21541;-93
2024/02/23 00:35:27;;;;;;;18.60;7.95;;;;;;;;;;4941804;28;20895;-92
2024/02/23 00:38:32;;;;;;;17.60;8.82;;;;;;;;;;4932097;29;20195;-91
2024/02/23 00:41:37;;;;;;;20.73;9.93;;;;;;;;;;4943147;29;20192;-91
2024/02/23 00:44:42;;;;;;;20.13;9.57;;;;;;;;;;4935884;29;20273;-91
2024/02/23 00:47:47;;;;;;;21.08;9.75;;;;;;;;;;4924089;29;20241;-91
2024/02/23 00:50:54;;;;;;;22.50;10.82;;;;;;;;;;4923913;29;20189;-92
2024/02/23 00:53:59;;;;;;;22.60;10.50;;;;;;;;;;4923354;29;20236;-91
2024/02/23 00:57:04;;;;;;;23.13;10.68;;;;;;;;;;4924970;29;20303;-91
2024/02/23 01:00:10;;;;;;;21.25;10.93;;;;;;;;;;4923923;29;20664;-92
2024/02/23 01:03:17;;;;;;;18.73;9.77;;;;;;;;;;4924558;29;20219;-91
2024/02/23 01:06:27;;;;;;;24.67;10.75;;;;;;;;;;4923550;29;20555;-91
2024/02/23 01:09:32;;;;;;;21.92;9.52;;;;;;;;;;4922676;29;20177;-91
2024/02/23 01:12:38;;;;;;;1.40;1.02;;;;;;;;;;4923851;29;20193;-91
2024/02/23 01:15:43;;;;;;;0.77;0.77;;;;;;;;;;4924327;29;20201;-92
2024/02/23 01:18:48;;;;;;;1.70;1.42;;;;;;;;;;4924775;29;20192;-92
2024/02/23 01:21:59;;;;;;;3.03;1.30;;;;;;;;;;4922942;28;20189;-93
2024/02/23 01:25:05;;;;;;;1.45;1.15;;;;;;;;;;4921420;29;20273;-90
2024/02/23 01:28:10;;;;;;;2.22;1.33;;;;;;;;;;4922698;29;20184;-91
2024/02/23 01:31:15;;;;;;;2.47;1.50;;;;;;;;;;4923145;29;20204;-92
2024/02/23 01:34:20;;;;;;;11.50;1.20;;;;;;;;;;4923132;29;20253;-92
2024/02/23 01:37:26;;;;;;;2.53;1.77;;;;;;;;;;4923692;29;20197;-92
2024/02/23 01:40:34;;;;;;;0.90;0.88;;;;;;;;;;4921936;29;20196;-91
2024/02/23 01:43:39;;;;;;;0.73;0.73;;;;;;;;;;4921553;29;20176;-94
2024/02/23 01:46:45;;;;;;;1.85;1.05;;;;;;;;;;4930219;28;20249;-92
2024/02/23 01:49:51;;;;;;;4.38;1.77;;;;;;;;;;4920841;29;20228;-92
2024/02/23 01:53:00;;;;;;;1.38;1.25;;;;;;;;;;4923249;29;20181;-91
2024/02/23 01:56:06;;;;;;;0.50;0.50;;;;;;;;;;4922480;29;20282;-92
2024/02/23 01:59:12;;;;;;;8.07;1.95;;;;;;;;;;4922740;29;20184;-91
2024/02/23 02:02:18;;;;;;;1.83;1.73;;;;;;;;;;4922126;29;20656;-92
2024/02/23 02:05:23;;;;;;;7.03;1.50;;;;;;;;;;4927724;29;20603;-91
2024/02/23 02:08:30;;;;;;;7.22;1.33;;;;;;;;;;4930464;29;20700;-91
2024/02/23 02:11:35;;;;;;;1.23;1.00;;;;;;;;;;4911164;29;20668;-92
2024/02/23 02:14:40;;;;;;;6.45;1.80;;;;;;;;;;4920717;29;20192;-90
2024/02/23 02:17:46;;;;;;;1.98;1.20;;;;;;;;;;4911631;29;20207;-92
2024/02/23 02:20:53;;;;;;;0.65;0.65;;;;;;;;;;4929946;29;20176;-92
2024/02/23 02:23:59;;;;;;;1.55;0.90;;;;;;;;;;4929082;29;20191;-92
2024/02/23 02:27:06;;;;;;;1.45;0.95;;;;;;;;;;4940514;28;20795;-92
2024/02/23 02:30:12;;;;;;;0.65;0.65;;;;;;;;;;4927683;29;20312;-92
2024/02/23 02:33:17;;;;;;;1.67;1.33;;;;;;;;;;4927291;29;20277;-92
2024/02/23 02:36:22;;;;;;;1.70;1.17;;;;;;;;;;4939492;29;20209;-92
2024/02/23 02:39:29;;;;;;;1.75;1.63;;;;;;;;;;4927396;29;20228;-91
2024/02/23 02:42:34;;;;;;;1.08;0.82;;;;;;;;;;4938668;28;20196;-92
2024/02/23 02:45:39;;;;;;;1.27;0.85;;;;;;;;;;4923029;28;20216;-93
2024/02/23 02:48:44;;;;;;;1.55;1.25;;;;;;;;;;4917820;29;20574;-91
2024/02/23 02:51:49;;;;;;;0.32;0.32;;;;;;;;;;4919518;29;20192;-89
2024/02/23 02:54:56;;;;;;;0.40;0.40;;;;;;;;;;4918141;29;20672;-90
2024/02/23 02:58:01;;;;;;;0.30;0.30;;;;;;;;;;4919002;29;20184;-90
2024/02/23 03:01:06;;;;;;;0.40;0.40;;;;;;;;;;4929236;29;20201;-91
2024/02/23 03:04:11;;;;;;;0.30;0.30;;;;;;;;;;4936861;29;20176;-91
2024/02/23 03:07:16;;;;;;;0.30;0.30;;;;;;;;;;4928455;29;20200;-91
2024/02/23 03:10:23;;;;;;;0.30;0.30;;;;;;;;;;4938538;28;20569;-91
2024/02/23 03:13:27;;;;;;;0.30;0.30;;;;;;;;;;4920551;29;20277;-91
2024/02/23 03:16:37;;;;;;;0.70;0.70;;;;;;;;;;4918917;29;20196;-91
2024/02/23 03:19:44;;;;;;;0.30;0.30;;;;;;;;;;4920211;29;20177;-92
2024/02/23 03:22:50;;;;;;;0.30;0.30;;;;;;;;;;4920407;29;20240;-93
2024/02/23 03:25:56;;;;;;;0.30;0.30;;;;;;;;;;4920189;29;20248;-92
2024/02/23 03:29:02;;;;;;;0.45;0.45;;;;;;;;;;4920102;29;20201;-90
2024/02/23 03:32:08;;;;;;;0.30;0.30;;;;;;;;;;4919447;29;20204;-92
2024/02/23 03:35:13;;;;;;;0.30;0.30;;;;;;;;;;4919672;29;20248;-91
2024/02/23 03:38:18;;;;;;;0.30;0.30;;;;;;;;;;4920192;29;20219;-92
2024/02/23 03:41:24;;;;;;;0.40;0.40;;;;;;;;;;4909853;29;20192;-92
2024/02/23 03:44:29;;;;;;;0.30;0.30;;;;;;;;;;4920599;29;20221;-91
2024/02/23 03:47:34;;;;;;;0.30;0.30;;;;;;;;;;4921816;29;20204;-94
2024/02/23 03:50:40;;;;;;;0.30;0.30;;;;;;;;;;4922969;29;20666;-91
2024/02/23 03:53:46;;;;;;;0.30;0.30;;;;;;;;;;4912638;29;20173;-91
2024/02/23 03:56:53;;;;;;;0.60;0.45;;;;;;;;;;4926369;29;20192;-92
2024/02/23 03:59:59;;;;;;;0.50;0.50;;;;;;;;;;4918934;29;20225;-91
2024/02/23 04:03:04;;;;;;;0.30;0.30;;;;;;;;;;4923131;29;20176;-91
2024/02/23 04:06:09;;;;;;;0.30;0.30;;;;;;;;;;4922793;29;20268;-90
2024/02/23 04:09:15;;;;;;;0.30;0.30;;;;;;;;;;4924579;29;20184;-92
2024/02/23 04:12:25;;;;;;;0.30;0.30;;;;;;;;;;4923767;29;20270;-91
2024/02/23 04:15:31;;;;;;;0.30;0.30;;;;;;;;;;4923335;29;20220;-91
2024/02/23 04:18:36;;;;;;;0.30;0.30;;;;;;;;;;4925890;29;20196;-91
2024/02/23 04:21:41;;;;;;;0.40;0.40;;;;;;;;;;4925636;29;20652;-91
2024/02/23 04:24:46;;;;;;;0.30;0.30;;;;;;;;;;4925027;29;20196;-91
2024/02/23 04:27:53;;;;;;;0.30;0.30;;;;;;;;;;4924646;29;20196;-90
2024/02/23 04:30:58;;;;;;;0.30;0.30;;;;;;;;;;4925619;29;20237;-91
2024/02/23 04:34:04;;;;;;;0.30;0.30;;;;;;;;;;4925591;29;20236;-90
2024/02/23 04:37:09;;;;;;;0.30;0.30;;;;;;;;;;4925500;29;20217;-92
2024/02/23 04:40:15;;;;;;;0.30;0.30;;;;;;;;;;4924952;29;20258;-92
2024/02/23 04:43:21;;;;;;;0.30;0.30;;;;;;;;;;4924749;29;20249;-91
2024/02/23 04:46:26;;;;;;;0.40;0.40;;;;;;;;;;4925073;29;20315;-91
2024/02/23 04:49:32;;;;;;;0.30;0.30;;;;;;;;;;4926445;29;20193;-91
2024/02/23 04:52:37;;;;;;;0.40;0.40;;;;;;;;;;4925804;29;20196;-93
2024/02/23 04:55:47;;;;;;;0.30;0.30;;;;;;;;;;4922834;29;20264;-93
2024/02/23 04:58:54;;;;;;;0.32;0.32;;;;;;;;;;4921720;29;20213;-93
2024/02/23 05:01:59;;;;;;;0.30;0.30;;;;;;;;;;4923532;29;20215;-91
2024/02/23 05:05:04;;;;;;;0.30;0.30;;;;;;;;;;4925041;29;20216;-91
2024/02/23 05:08:10;;;;;;;0.30;0.30;;;;;;;;;;4925287;29;20209;-91
2024/02/23 05:11:16;;;;;;;0.30;0.30;;;;;;;;;;4912998;29;20197;-90
2024/02/23 05:14:23;;;;;;;0.50;0.50;;;;;;;;;;4923534;29;20184;-91
2024/02/23 05:17:28;;;;;;;0.40;0.40;;;;;;;;;;4940343;29;20204;-93
2024/02/23 05:20:34;;;;;;;0.50;0.50;;;;;;;;;;4930661;29;20213;-92
2024/02/23 05:23:39;;;;;;;0.30;0.30;;;;;;;;;;4943144;28;20192;-92
2024/02/23 05:26:44;;;;;;;0.30;0.30;;;;;;;;;;4928871;29;20227;-90
2024/02/23 05:29:51;;;;;;;0.40;0.40;;;;;;;;;;4942347;29;20255;-92
2024/02/23 05:32:57;;;;;;;0.30;0.30;;;;;;;;;;4941839;28;20207;-90
2024/02/23 05:36:02;;;;;;;0.30;0.30;;;;;;;;;;4942970;28;20631;-91
2024/02/23 05:39:07;;;;;;;0.30;0.30;;;;;;;;;;4935715;28;20577;-91
2024/02/23 05:42:13;;;;;;;0.30;0.30;;;;;;;;;;4930075;29;20200;-91
2024/02/23 05:45:19;;;;;;;0.30;0.30;;;;;;;;;;4945293;28;20211;-92
2024/02/23 05:48:25;;;;;;;0.40;0.40;;;;;;;;;;4940513;29;20234;-91
2024/02/23 05:51:30;;;;;;;0.30;0.30;;;;;;;;;;4932546;29;20313;-91
2024/02/23 05:54:36;;;;;;;0.30;0.30;;;;;;;;;;4937107;28;20683;-93
2024/02/23 05:57:42;;;;;;;0.30;0.30;;;;;;;;;;4932116;29;20215;-91
2024/02/23 06:00:49;;;;;;;0.40;0.40;;;;;;;;;;4933371;28;20215;-92
2024/02/23 06:03:55;;;;;;;4.32;0.75;;;;;;;;;;4936178;29;20184;-91
2024/02/23 06:07:01;;;;;;;0.30;0.30;;;;;;;;;;4951699;28;20226;-92
2024/02/23 06:10:07;;;;;;;0.50;0.50;;;;;;;;;;4951038;28;20199;-92
2024/02/23 06:13:11;;;;;;;0.35;0.35;;;;;;;;;;4912541;29;20191;-90
2024/02/23 06:16:18;;;;;;;0.40;0.40;;;;;;;;;;4912019;29;20208;-91
2024/02/23 06:19:23;;;;;;;0.40;0.40;;;;;;;;;;4911821;29;20176;-91
2024/02/23 06:22:29;;;;;;;0.40;0.40;;;;;;;;;;4912064;29;20549;-92
2024/02/23 06:25:34;;;;;;;0.57;0.57;;;;;;;;;;4912075;29;20220;-91
2024/02/23 06:28:42;;;;;;;0.47;0.47;;;;;;;;;;4913448;29;20196;-93
2024/02/23 06:31:50;;;;;;;0.38;0.38;;;;;;;;;;4911596;29;20183;-91
2024/02/23 06:34:55;;;;;;;0.45;0.45;;;;;;;;;;4911784;29;20286;-91
2024/02/23 06:38:01;;;;;;;0.30;0.30;;;;;;;;;;4925038;29;20212;-92
2024/02/23 06:41:08;;;;;;;1.33;1.02;;;;;;;;;;4909870;29;20193;-91
2024/02/23 06:44:13;;;;;;;0.40;0.40;;;;;;;;;;4920595;29;20201;-91
2024/02/23 06:47:20;;;;;;;0.40;0.40;;;;;;;;;;4911131;29;20318;-93
2024/02/23 06:50:25;;;;;;;1.05;0.57;;;;;;;;;;4910914;29;20305;-93
2024/02/23 06:53:30;;;;;;;0.30;0.30;;;;;;;;;;4912957;29;20200;-92
2024/02/23 06:56:36;;;;;;;0.45;0.45;;;;;;;;;;4914327;29;20196;-92
2024/02/23 06:59:41;;;;;;;2.08;1.02;;;;;;;;;;4915063;29;20279;-90
2024/02/23 07:02:48;;;;;;;0.43;0.43;;;;;;;;;;4940639;28;20205;-91
2024/02/23 07:05:53;;;;;;;0.32;0.32;;;;;;;;;;4942022;28;20223;-91
2024/02/23 07:08:59;;;;;;;0.30;0.30;;;;;;;;;;4930877;29;20295;-91
2024/02/23 07:12:04;;;;;;;0.30;0.30;;;;;;;;;;4942230;29;20175;-90
2024/02/23 07:15:10;;;;;;;0.40;0.40;;;;;;;;;;4928289;29;20193;-92
2024/02/23 07:18:17;;;;;;;0.30;0.30;;;;;;;;;;4923351;29;20201;-91
2024/02/23 07:21:22;;;;;;;0.40;0.40;;;;;;;;;;4922600;29;20196;-93
2024/02/23 07:24:28;;;;;;;0.30;0.30;;;;;;;;;;4924196;29;20318;-94
2024/02/23 07:27:35;;;;;;;0.30;0.30;;;;;;;;;;4924954;29;20239;-94
2024/02/23 07:30:40;;;;;;;0.43;0.43;;;;;;;;;;4923220;29;20192;-93
2024/02/23 07:33:52;;;;;;;0.30;0.30;;;;;;;;;;4923373;29;20228;-93
2024/02/23 07:40:18;;;;;;;0.47;0.47;;;;;;;;;;4910840;29;20201;-93
2024/02/23 07:43:24;;;;;;;0.65;0.65;;;;;;;;;;4921872;29;20189;-93
2024/02/23 07:46:33;;;;;;;11.35;6.20;;;;;;;;;;4923800;29;20224;-93
2024/02/23 07:49:43;;;;;;;0.43;0.43;;;;;;;;;;4922327;29;20204;-93
2024/02/23 07:52:49;;;;;;;0.60;0.60;;;;;;;;;;4923407;29;20196;-93
2024/02/23 07:55:55;;;;;;;0.40;0.40;;;;;;;;;;4923565;29;20188;-93
2024/02/23 07:59:03;;;;;;;0.40;0.40;;;;;;;;;;4937685;28;20287;-92
2024/02/23 08:02:09;;;;;;;0.30;0.30;;;;;;;;;;4943903;28;20204;-93
2024/02/23 08:05:17;;;;;;;1.15;0.60;;;;;;;;;;4944885;28;20244;-92
2024/02/23 08:08:27;;;;;;;0.30;0.30;;;;;;;;;;4930961;29;20280;-91
2024/02/23 08:11:34;;;;;;;0.47;0.47;;;;;;;;;;4944222;28;20200;-93
2024/02/23 08:14:45;;;;;;;0.40;0.40;;;;;;;;;;4933325;29;20184;-93
2024/02/23 08:17:54;;;;;;;9.43;0.65;;;;;;;;;;4927328;29;20196;-93
2024/02/23 08:21:02;;;;;;;0.40;0.40;;;;;;;;;;4930532;29;20215;-91
2024/02/23 08:24:08;;;;;;;0.30;0.30;;;;;;;;;;4910413;29;20196;-92
2024/02/23 08:27:13;;;;;;;3.75;1.67;;;;;;;;;;4913572;29;20234;-92
2024/02/23 08:30:20;;;;;;;2.38;1.15;;;;;;;;;;4927734;29;20211;-92
2024/02/23 08:33:28;;;;;;;0.60;0.60;;;;;;;;;;4935670;29;20206;-91
2024/02/23 08:40:06;;;;;;;0.30;0.30;;;;;;;;;;4950864;28;20195;-92
2024/02/23 08:43:13;;;;;;;0.35;0.35;;;;;;;;;;4938143;29;20268;-91
2024/02/23 08:49:39;;;;;;;0.30;0.30;;;;;;;;;;4950061;29;20267;-93
2024/02/23 09:04:30;;;;;;;2.42;1.00;;;;;;;;;;5450677;23;20225;-93
2024/02/23 09:07:40;;;;;;;4.32;1.10;;;;;;;;;;5030875;28;20212;-92
2024/02/23 09:10:46;;;;;;;3.90;0.90;;;;;;;;;;5019674;28;20187;-92
2024/02/23 09:13:51;;;;;;;5.05;1.05;;;;;;;;;;5031804;28;20180;-89
2024/02/23 09:16:57;;;;;;;3.05;1.00;;;;;;;;;;5031198;28;20189;-93
2024/02/23 09:23:56;;;;;;;1.45;1.10;;;;;;;;;;5014631;28;20732;-92
2024/02/23 09:27:02;;;;;;;2.28;1.13;;;;;;;;;;5028408;28;20220;-92
2024/02/23 09:30:07;;;;;;;3.95;1.13;;;;;;;;;;5030672;28;20212;-90
2024/02/23 09:33:13;;;;;;;5.60;1.70;;;;;;;;;;5012045;28;20691;-91
2024/02/23 09:36:18;;;;;;;3.63;0.80;;;;;;;;;;5024200;28;20204;-91
2024/02/23 09:39:29;;;;;;;3.35;1.02;;;;;;;;;;5029051;28;20315;-91
2024/02/23 09:42:38;;;;;;;4.35;1.30;;;;;;;;;;5031481;28;20269;-91
2024/02/23 09:45:46;;;;;;;2.92;1.40;;;;;;;;;;5032214;28;20193;-91
2024/02/23 09:48:52;;;;;;;1.88;0.90;;;;;;;;;;5031029;28;20196;-91
2024/02/23 09:52:13;;;;;;;2.20;0.90;;;;;;;;;;5031786;28;20201;-92
2024/02/23 12:41:59;;;;;;;2.05;0.70;;;;;;;;;;5082592;23;20247;-93
2024/02/23 12:45:06;;;;;;;4.38;0.95;;;;;;;;;;5051931;28;20207;-93
2024/02/23 12:48:12;;;;;;;1.77;1.10;;;;;;;;;;5021638;28;20331;-93
2024/02/23 12:51:17;;;;;;;1.42;0.77;;;;;;;;;;5031357;28;20192;-93
2024/02/23 12:54:23;;;;;;;2.30;1.00;;;;;;;;;;5026134;28;20188;-93
2024/02/23 12:57:30;;;;;;;3.78;1.10;;;;;;;;;;5010246;28;20192;-93
2024/02/23 13:00:36;;;;;;;2.88;1.00;;;;;;;;;;5013043;28;20197;-93
2024/02/23 13:03:42;;;;;;;2.78;0.90;;;;;;;;;;5012251;28;20227;-93
2024/02/23 13:06:48;;;;;;;1.90;1.08;;;;;;;;;;5011647;28;20216;-93
2024/02/23 13:13:20;;;;;;;2.80;1.17;;;;;;;;;;5010859;28;20208;-91
2024/02/23 13:16:26;;;;;;;7.75;2.65;;;;;;;;;;5010654;28;20609;-92
2024/02/23 13:19:33;;;;;;;3.05;1.55;;;;;;;;;;5012468;28;20228;-94
2024/02/23 13:22:38;;;;;;;4.05;1.30;;;;;;;;;;5010410;28;20197;-92
2024/02/23 13:25:44;;;;;;;4.22;1.08;;;;;;;;;;5011790;28;20194;-94
2024/02/23 13:28:55;;;;;;;2.92;1.30;;;;;;;;;;5012130;28;20193;-92
2024/02/23 13:32:01;;;;;;;5.15;1.65;;;;;;;;;;5012443;28;20558;-91
2024/02/23 13:38:26;;;;;;;6.20;1.42;;;;;;;;;;5011086;28;20201;-93
2024/02/23 15:45:14;;;;;;;10.13;2.70;;;;;;;;;;4981361;28;20237;-92
2024/02/23 15:48:19;;;;;;;6.93;2.07;;;;;;;;;;4995627;28;20212;-91
2024/02/23 15:51:25;;;;;;;7.93;2.20;;;;;;;;;;4995409;28;20329;-92
2024/02/23 15:54:31;;;;;;;4.90;1.50;;;;;;;;;;4995696;28;20193;-92
2024/02/23 15:57:38;;;;;;;5.80;1.67;;;;;;;;;;4994428;28;20201;-91
2024/02/23 16:00:45;;;;;;;5.50;2.37;;;;;;;;;;4977463;28;20182;-91
2024/02/23 16:03:51;;;;;;;9.27;3.27;;;;;;;;;;4986441;28;20200;-92
2024/02/23 16:06:57;;;;;;;5.53;2.10;;;;;;;;;;4993538;28;20217;-91
2024/02/23 16:10:02;;;;;;;3.10;1.30;;;;;;;;;;4975404;28;20198;-90
2024/02/23 16:13:07;;;;;;;5.73;2.10;;;;;;;;;;4986214;28;20209;-91
2024/02/23 16:16:14;;;;;;;4.67;1.17;;;;;;;;;;4994348;28;20194;-91
2024/02/23 16:19:20;;;;;;;2.67;1.10;;;;;;;;;;4994672;28;20193;-91
2024/02/23 16:22:26;;;;;;;3.83;1.40;;;;;;;;;;4998218;28;20232;-89
2024/02/23 16:25:32;;;;;;;3.50;1.43;;;;;;;;;;5015691;28;20184;-91
2024/02/23 16:28:42;;;;;;;5.97;1.30;;;;;;;;;;4997460;28;20705;-92
2024/02/23 16:31:49;;;;;;;1.40;0.80;;;;;;;;;;4996376;28;20186;-92
2024/02/23 16:34:56;;;;;;;2.13;1.20;;;;;;;;;;4997065;28;20205;-93
2024/02/23 16:38:03;;;;;;;1.67;1.00;;;;;;;;;;4996303;28;20265;-91
2024/02/23 16:41:09;;;;;;;2.77;1.60;;;;;;;;;;4996496;28;20174;-93
2024/02/23 16:44:18;;;;;;;5.73;1.93;;;;;;;;;;4996189;28;20237;-92
2024/02/23 16:47:26;;;;;;;6.67;1.60;;;;;;;;;;4994731;28;20249;-92
2024/02/23 16:50:33;;;;;;;5.10;1.77;;;;;;;;;;4984622;28;20209;-91
2024/02/23 16:53:39;;;;;;;26.37;12.70;;;;;;;;;;4980613;28;20261;-92
2024/02/23 16:56:45;;;;;;;5.87;2.27;;;;;;;;;;4989261;28;20255;-91
2024/02/23 16:59:50;;;;;;;2.63;1.40;;;;;;;;;;4991411;28;20181;-92
2024/02/23 17:03:10;;;;;;;4.53;1.80;;;;;;;;;;4971121;28;20202;-92
2024/02/23 17:06:15;;;;;;;2.70;1.23;;;;;;;;;;4987124;28;20206;-95
2024/02/23 17:09:25;;;;;;;8.53;4.30;;;;;;;;;;4990566;28;20255;-93
2024/02/23 17:12:30;;;;;;;21.23;11.97;;;;;;;;;;4974156;28;20206;-92
2024/02/23 17:15:37;;;;;;;8.93;4.30;;;;;;;;;;5001201;28;20240;-92
2024/02/23 17:18:44;;;;;;;4.50;2.70;;;;;;;;;;4981710;28;20218;-92
2024/02/23 17:21:49;;;;;;;5.57;2.10;;;;;;;;;;4983726;28;20213;-91
2024/02/23 17:24:56;;;;;;;6.13;2.73;;;;;;;;;;4970600;28;20198;-92
2024/02/23 17:31:22;;;;;;;3.70;1.70;;;;;;;;;;4972843;28;20272;-92
2024/02/23 17:34:34;;;;;;;7.20;3.17;;;;;;;;;;4971091;28;20649;-91
2024/02/23 17:37:40;;;;;;;4.83;2.73;;;;;;;;;;4981256;28;20308;-91
2024/02/23 17:44:05;;;;;;;5.53;2.37;;;;;;;;;;4991806;28;20209;-93
2024/02/23 17:47:14;;;;;;;5.67;2.57;;;;;;;;;;4993037;28;20222;-92
2024/02/23 17:50:20;;;;;;;4.37;2.20;;;;;;;;;;4989798;28;20201;-92
2024/02/23 17:53:26;;;;;;;6.90;2.87;;;;;;;;;;4988417;28;20330;-92
2024/02/23 17:56:31;;;;;;;8.70;3.57;;;;;;;;;;4968982;28;20206;-92
2024/02/23 17:59:37;;;;;;;6.90;2.43;;;;;;;;;;4969530;28;20222;-92
2024/02/23 18:02:43;;;;;;;6.07;2.20;;;;;;;;;;4971001;28;20186;-92
2024/02/23 18:05:50;;;;;;;11.40;5.30;;;;;;;;;;4971055;28;20166;-92
2024/02/23 18:08:57;;;;;;;9.97;5.13;;;;;;;;;;4970951;28;20221;-92
2024/02/23 18:12:03;;;;;;;17.13;6.97;;;;;;;;;;4982217;28;20202;-91
2024/02/23 18:18:32;;;;;;;18.40;8.10;;;;;;;;;;4991835;28;20182;-92
2024/02/23 18:21:40;;;;;;;17.70;8.37;;;;;;;;;;4990088;28;20202;-93
2024/02/23 18:24:48;;;;;;;16.57;6.20;;;;;;;;;;4987318;28;20233;-92
2024/02/23 18:27:53;;;;;;;18.57;8.57;;;;;;;;;;4991057;28;20269;-91
2024/02/23 18:30:59;;;;;;;17.33;9.27;;;;;;;;;;4988808;28;20193;-92
2024/02/23 18:34:04;;;;;;;15.33;6.93;;;;;;;;;;4990185;28;20180;-92
2024/02/23 18:37:12;;;;;;;11.83;5.90;;;;;;;;;;4977111;28;20194;-93
2024/02/23 18:40:17;;;;;;;7.90;4.60;;;;;;;;;;4971105;28;20190;-93
2024/02/23 18:43:23;;;;;;;4.17;2.43;;;;;;;;;;4968936;28;20266;-92
2024/02/23 18:46:29;;;;;;;5.87;3.50;;;;;;;;;;4984135;28;20220;-92
2024/02/23 18:49:34;;;;;;;12.93;8.37;;;;;;;;;;4988628;28;20193;-93
2024/02/23 18:52:42;;;;;;;12.77;8.67;;;;;;;;;;4989182;28;20190;-92
2024/02/23 18:55:46;;;;;;;9.40;4.13;;;;;;;;;;4989002;28;20596;-93
2024/02/23 18:58:52;;;;;;;6.03;3.67;;;;;;;;;;4988841;28;20182;-92
2024/02/23 19:01:58;;;;;;;0.70;0.70;;;;;;;;;;4989814;28;20276;-93
2024/02/23 19:05:04;;;;;;;0.40;0.40;;;;;;;;;;4988061;28;20280;-94
2024/02/23 19:08:11;;;;;;;0.67;0.67;;;;;;;;;;4987483;28;20295;-92
2024/02/23 19:11:17;;;;;;;0.83;0.83;;;;;;;;;;4986760;28;20198;-94
2024/02/23 19:14:23;;;;;;;0.90;0.90;;;;;;;;;;4987263;28;20182;-93
2024/02/23 19:17:30;;;;;;;0.40;0.40;;;;;;;;;;4987757;28;20177;-90
2024/02/23 19:20:37;;;;;;;1.60;1.33;;;;;;;;;;4988468;28;20201;-92
2024/02/23 19:23:44;;;;;;;2.43;1.10;;;;;;;;;;4989123;28;20251;-93
2024/02/23 19:26:50;;;;;;;2.43;1.00;;;;;;;;;;4988555;28;20181;-93
2024/02/23 19:29:57;;;;;;;0.40;0.40;;;;;;;;;;4988006;28;20229;-92
2024/02/23 19:33:03;;;;;;;0.47;0.47;;;;;;;;;;4990881;28;20258;-91
2024/02/23 19:36:09;;;;;;;4.03;2.33;;;;;;;;;;4987614;28;20193;-92
2024/02/23 19:39:16;;;;;;;0.60;0.60;;;;;;;;;;4986901;28;20202;-93
2024/02/23 19:42:22;;;;;;;0.67;0.67;;;;;;;;;;4986382;28;20556;-93
2024/02/23 19:45:29;;;;;;;2.53;1.30;;;;;;;;;;4986445;28;20169;-91
2024/02/23 19:48:36;;;;;;;0.67;0.67;;;;;;;;;;4987805;28;20237;-92
2024/02/23 19:51:42;;;;;;;1.10;0.90;;;;;;;;;;4988270;28;20198;-92
2024/02/23 19:54:49;;;;;;;0.40;0.40;;;;;;;;;;4989589;28;20186;-91
2024/02/23 19:57:55;;;;;;;0.40;0.40;;;;;;;;;;4989086;28;20198;-90
2024/02/23 20:01:00;;;;;;;0.50;0.50;;;;;;;;;;4989470;28;20222;-91
2024/02/23 20:04:06;;;;;;;1.90;0.87;;;;;;;;;;4988070;28;20198;-90
2024/02/23 20:07:13;;;;;;;1.30;0.83;;;;;;;;;;4988246;28;20263;-91
2024/02/23 20:10:20;;;;;;;0.40;0.40;;;;;;;;;;4987956;28;20205;-92
2024/02/23 20:13:25;;;;;;;0.50;0.50;;;;;;;;;;4989741;28;20251;-91
2024/02/23 20:16:31;;;;;;;1.83;1.43;;;;;;;;;;4986973;28;20247;-91
2024/02/23 20:19:37;;;;;;;1.10;1.00;;;;;;;;;;4970276;28;20169;-93
2024/02/23 20:22:44;;;;;;;0.60;0.60;;;;;;;;;;4971635;28;20182;-91
2024/02/23 20:25:51;;;;;;;8.50;1.37;;;;;;;;;;4969128;28;20186;-92
2024/02/23 20:28:57;;;;;;;0.77;0.77;;;;;;;;;;4971675;28;20218;-92
2024/02/23 20:32:05;;;;;;;3.00;2.30;;;;;;;;;;4974075;28;20662;-94
2024/02/23 20:35:10;;;;;;;1.50;1.37;;;;;;;;;;4975388;28;20186;-92
2024/02/23 20:38:15;;;;;;;0.50;0.50;;;;;;;;;;4975620;28;20178;-91
2024/02/23 20:41:31;;;;;;;0.70;0.70;;;;;;;;;;4974333;28;20190;-93
2024/02/23 20:44:42;;;;;;;1.03;1.03;;;;;;;;;;4976384;28;20178;-90
2024/02/23 21:58:37;;;;;;;0.40;0.40;;;;;;;;;;4996401;28;20237;-92
2024/02/23 22:01:44;;;;;;;0.50;0.50;;;;;;;;;;5010015;28;20193;-92
2024/02/23 22:04:53;;;;;;;0.40;0.40;;;;;;;;;;5009310;28;20193;-94
2024/02/23 22:07:59;;;;;;;0.30;0.30;;;;;;;;;;5009392;28;20196;-93
2024/02/23 22:11:05;;;;;;;0.50;0.50;;;;;;;;;;5009810;28;20221;-93
2024/02/23 22:14:11;;;;;;;0.67;0.67;;;;;;;;;;5008274;28;20189;-92
2024/02/23 22:17:17;;;;;;;1.17;0.67;;;;;;;;;;5007119;28;20185;-91
2024/02/23 22:20:22;;;;;;;0.83;0.83;;;;;;;;;;5006529;28;20516;-92
2024/02/23 22:23:27;;;;;;;0.70;0.70;;;;;;;;;;5006466;28;20192;-92
2024/02/23 22:26:34;;;;;;;2.00;1.07;;;;;;;;;;5008208;28;20237;-93
2024/02/23 22:29:41;;;;;;;0.50;0.50;;;;;;;;;;5005396;28;20301;-92
2024/02/23 22:32:45;;;;;;;3.20;1.47;;;;;;;;;;5007669;28;20252;-90
2024/02/23 22:35:55;;;;;;;0.93;0.87;;;;;;;;;;5008784;28;20189;-92
2024/02/23 22:39:00;;;;;;;0.67;0.67;;;;;;;;;;4988100;28;20197;-92
2024/02/23 22:42:06;;;;;;;0.97;0.87;;;;;;;;;;4985469;28;20190;-93
2024/02/23 22:45:12;;;;;;;0.47;0.47;;;;;;;;;;4985106;28;20242;-93
2024/02/23 22:48:18;;;;;;;0.53;0.53;;;;;;;;;;4985527;28;20344;-91
2024/02/23 22:51:23;;;;;;;0.70;0.70;;;;;;;;;;4986470;28;20685;-91
2024/02/23 22:54:28;;;;;;;0.50;0.50;;;;;;;;;;4986069;28;20221;-91
2024/02/23 22:57:33;;;;;;;0.90;0.90;;;;;;;;;;4987220;28;20213;-92
2024/02/23 23:00:42;;;;;;;3.50;1.30;;;;;;;;;;4988485;28;20170;-92
2024/02/23 23:03:51;;;;;;;1.17;0.60;;;;;;;;;;4986250;28;20256;-92
2024/02/23 23:06:57;;;;;;;0.90;0.90;;;;;;;;;;4989441;28;20210;-91
2024/02/23 23:10:03;;;;;;;0.67;0.67;;;;;;;;;;4986626;28;20213;-92
2024/02/23 23:13:08;;;;;;;3.70;0.70;;;;;;;;;;4987266;28;20251;-91
2024/02/23 23:16:15;;;;;;;0.80;0.63;;;;;;;;;;4987852;28;20202;-92
2024/02/23 23:19:22;;;;;;;0.67;0.63;;;;;;;;;;4985796;28;20190;-93
2024/02/23 23:22:27;;;;;;;0.60;0.60;;;;;;;;;;4985693;28;20255;-92
2024/02/23 23:25:33;;;;;;;1.20;1.10;;;;;;;;;;4985433;28;20190;-92
2024/02/23 23:28:38;;;;;;;0.60;0.60;;;;;;;;;;4986818;28;20209;-92
2024/02/23 23:31:45;;;;;;;1.07;1.03;;;;;;;;;;4986910;28;20185;-91
2024/02/23 23:34:50;;;;;;;5.00;2.30;;;;;;;;;;4996631;28;20201;-91
2024/02/23 23:37:56;;;;;;;0.50;0.50;;;;;;;;;;5008411;28;20224;-92
2024/02/23 23:41:01;;;;;;;0.60;0.60;;;;;;;;;;5005578;28;20197;-92
2024/02/23 23:44:06;;;;;;;0.57;0.57;;;;;;;;;;5005838;28;20189;-91
2024/02/23 23:47:12;;;;;;;1.50;1.17;;;;;;;;;;5004532;28;20576;-91
2024/02/23 23:50:18;;;;;;;0.50;0.50;;;;;;;;;;5006410;28;20324;-91
2024/02/23 23:53:23;;;;;;;1.80;1.23;;;;;;;;;;5007920;28;20216;-91
2024/02/23 23:56:28;;;;;;;1.33;1.23;;;;;;;;;;5006598;28;20211;-91
2024/02/23 23:59:34;;;;;;;0.87;0.87;;;;;;;;;;5005976;28;20197;-91
